sensor_id;sensor_type;location;lat;lon;timestamp;pressure;altitude;pressure_sealevel;temperature;humidity
81937;BME280;71432;56.558;9.036;2023-07-20T00:01:19;100821.47;;;23.89;43.85
81937;BME280;71432;56.558;9.036;2023-07-20T00:03:44;100825.94;;;23.88;43.77
81937;BME280;71432;56.558;9.036;2023-07-20T00:06:10;100833.03;;;23.88;43.82
81937;BME280;71432;56.558;9.036;2023-07-20T00:08:35;100817.31;;;23.86;43.91
81937;BME280;71432;56.558;9.036;2023-07-20T00:11:01;100818.00;;;23.88;43.79
81937;BME280;71432;56.558;9.036;2023-07-20T00:13:26;100813.84;;;23.86;43.86
81937;BME280;71432;56.558;9.036;2023-07-20T00:15:52;100811.41;;;23.84;44.07
81937;BME280;71432;56.558;9.036;2023-07-20T00:18:17;100817.47;;;23.85;44.10
81937;BME280;71432;56.558;9.036;2023-07-20T00:20:46;100816.50;;;23.86;43.97
81937;BME280;71432;56.558;9.036;2023-07-20T00:23:12;100807.25;;;23.82;43.75
81937;BME280;71432;56.558;9.036;2023-07-20T00:25:37;100814.19;;;23.83;44.18
81937;BME280;71432;56.558;9.036;2023-07-20T00:28:02;100800.28;;;23.81;44.33
81937;BME280;71432;56.558;9.036;2023-07-20T00:30:28;100794.84;;;23.74;44.04
81937;BME280;71432;56.558;9.036;2023-07-20T00:32:53;100806.25;;;23.83;44.05
81937;BME280;71432;56.558;9.036;2023-07-20T00:35:18;100801.97;;;23.82;44.12
81937;BME280;71432;56.558;9.036;2023-07-20T00:37:44;100789.38;;;23.76;44.22
81937;BME280;71432;56.558;9.036;2023-07-20T00:40:09;100789.06;;;23.79;44.24
81937;BME280;71432;56.558;9.036;2023-07-20T00:42:35;100784.78;;;23.78;44.19
81937;BME280;71432;56.558;9.036;2023-07-20T00:45:00;100783.13;;;23.77;44.32
81937;BME280;71432;56.558;9.036;2023-07-20T00:47:27;100791.72;;;23.79;44.27
81937;BME280;71432;56.558;9.036;2023-07-20T00:49:52;100793.38;;;23.80;44.18
81937;BME280;71432;56.558;9.036;2023-07-20T00:52:19;100789.91;;;23.79;44.36
81937;BME280;71432;56.558;9.036;2023-07-20T00:54:45;100789.06;;;23.79;44.30
81937;BME280;71432;56.558;9.036;2023-07-20T00:57:12;100794.38;;;23.79;44.29
81937;BME280;71432;56.558;9.036;2023-07-20T00:59:39;100788.59;;;23.75;44.30
81937;BME280;71432;56.558;9.036;2023-07-20T01:02:04;100787.91;;;23.73;44.24
81937;BME280;71432;56.558;9.036;2023-07-20T01:04:30;100790.41;;;23.75;44.34
81937;BME280;71432;56.558;9.036;2023-07-20T01:07:09;100791.03;;;23.77;44.34
81937;BME280;71432;56.558;9.036;2023-07-20T01:12:29;100767.59;;;23.66;43.99
81937;BME280;71432;56.558;9.036;2023-07-20T01:14:55;100787.91;;;23.73;43.96
81937;BME280;71432;56.558;9.036;2023-07-20T01:17:20;100787.09;;;23.73;43.96
81937;BME280;71432;56.558;9.036;2023-07-20T01:19:46;100791.72;;;23.71;43.98
81937;BME280;71432;56.558;9.036;2023-07-20T01:23:00;100779.50;;;23.70;44.10
81937;BME280;71432;56.558;9.036;2023-07-20T01:31:39;100789.06;;;23.71;44.29
81937;BME280;71432;56.558;9.036;2023-07-20T01:34:08;100782.97;;;23.70;44.34
81937;BME280;71432;56.558;9.036;2023-07-20T01:36:36;100787.41;;;23.70;44.33
81937;BME280;71432;56.558;9.036;2023-07-20T01:39:02;100779.97;;;23.65;44.45
81937;BME280;71432;56.558;9.036;2023-07-20T01:41:29;100788.25;;;23.70;44.23
81937;BME280;71432;56.558;9.036;2023-07-20T01:43:57;100791.88;;;23.69;44.50
81937;BME280;71432;56.558;9.036;2023-07-20T01:46:23;100779.66;;;23.68;44.44
81937;BME280;71432;56.558;9.036;2023-07-20T01:48:48;100779.00;;;23.66;44.33
81937;BME280;71432;56.558;9.036;2023-07-20T01:51:15;100774.34;;;23.68;44.41
81937;BME280;71432;56.558;9.036;2023-07-20T01:53:43;100768.56;;;23.65;44.57
81937;BME280;71432;56.558;9.036;2023-07-20T01:56:08;100777.16;;;23.67;44.09
81937;BME280;71432;56.558;9.036;2023-07-20T01:58:33;100770.38;;;23.64;44.27
81937;BME280;71432;56.558;9.036;2023-07-20T02:00:58;100772.88;;;23.66;44.23
81937;BME280;71432;56.558;9.036;2023-07-20T02:03:24;100773.03;;;23.64;44.39
81937;BME280;71432;56.558;9.036;2023-07-20T02:05:51;100770.38;;;23.64;44.22
81937;BME280;71432;56.558;9.036;2023-07-20T02:08:17;100768.72;;;23.63;44.15
81937;BME280;71432;56.558;9.036;2023-07-20T02:10:48;100773.03;;;23.64;44.30
81937;BME280;71432;56.558;9.036;2023-07-20T02:13:14;100770.25;;;23.66;44.32
81937;BME280;71432;56.558;9.036;2023-07-20T02:15:39;100762.81;;;23.61;44.34
81937;BME280;71432;56.558;9.036;2023-07-20T02:18:05;100767.75;;;23.64;44.38
81937;BME280;71432;56.558;9.036;2023-07-20T02:20:31;100751.88;;;23.56;44.26
81937;BME280;71432;56.558;9.036;2023-07-20T02:22:56;100767.06;;;23.62;44.50
81937;BME280;71432;56.558;9.036;2023-07-20T02:25:21;100773.19;;;23.63;44.18
81937;BME280;71432;56.558;9.036;2023-07-20T02:27:47;100772.53;;;23.61;44.40
81937;BME280;71432;56.558;9.036;2023-07-20T02:30:12;100767.41;;;23.59;44.48
81937;BME280;71432;56.558;9.036;2023-07-20T02:32:38;100770.06;;;23.59;44.69
81937;BME280;71432;56.558;9.036;2023-07-20T02:35:04;100777.66;;;23.62;44.35
81937;BME280;71432;56.558;9.036;2023-07-20T02:37:30;100776.00;;;23.61;44.40
81937;BME280;71432;56.558;9.036;2023-07-20T02:39:56;100785.06;;;23.59;44.08
81937;BME280;71432;56.558;9.036;2023-07-20T02:42:21;100785.06;;;23.59;44.34
81937;BME280;71432;56.558;9.036;2023-07-20T02:44:48;100774.50;;;23.59;44.39
81937;BME280;71432;56.558;9.036;2023-07-20T02:47:13;100776.31;;;23.58;44.51
81937;BME280;71432;56.558;9.036;2023-07-20T02:49:38;100772.19;;;23.56;44.32
81937;BME280;71432;56.558;9.036;2023-07-20T02:52:04;100768.38;;;23.58;44.39
81937;BME280;71432;56.558;9.036;2023-07-20T02:54:30;100770.19;;;23.58;44.31
81937;BME280;71432;56.558;9.036;2023-07-20T02:56:55;100756.50;;;23.54;44.20
81937;BME280;71432;56.558;9.036;2023-07-20T02:59:21;100765.75;;;23.58;44.56
81937;BME280;71432;56.558;9.036;2023-07-20T03:01:46;100764.91;;;23.58;44.40
81937;BME280;71432;56.558;9.036;2023-07-20T03:04:11;100763.44;;;23.55;44.55
81937;BME280;71432;56.558;9.036;2023-07-20T03:06:37;100768.56;;;23.57;44.57
81937;BME280;71432;56.558;9.036;2023-07-20T03:09:03;100766.91;;;23.56;44.51
81937;BME280;71432;56.558;9.036;2023-07-20T03:11:29;100765.09;;;23.56;44.51
81937;BME280;71432;56.558;9.036;2023-07-20T03:13:54;100766.91;;;23.56;44.31
81937;BME280;71432;56.558;9.036;2023-07-20T03:16:21;100765.94;;;23.57;44.61
81937;BME280;71432;56.558;9.036;2023-07-20T03:18:46;100761.13;;;23.52;44.55
81937;BME280;71432;56.558;9.036;2023-07-20T03:21:12;100754.03;;;23.53;44.50
81937;BME280;71432;56.558;9.036;2023-07-20T03:23:41;100757.81;;;23.50;44.73
81937;BME280;71432;56.558;9.036;2023-07-20T03:26:07;100770.38;;;23.56;44.67
81937;BME280;71432;56.558;9.036;2023-07-20T03:28:38;100777.63;;;23.54;44.83
81937;BME280;71432;56.558;9.036;2023-07-20T03:31:04;100777.16;;;23.51;44.59
81937;BME280;71432;56.558;9.036;2023-07-20T03:33:30;100772.34;;;23.54;44.75
81937;BME280;71432;56.558;9.036;2023-07-20T03:35:56;100771.38;;;23.55;44.58
81937;BME280;71432;56.558;9.036;2023-07-20T03:38:25;100769.72;;;23.54;44.51
81937;BME280;71432;56.558;9.036;2023-07-20T03:40:51;100772.34;;;23.54;44.34
81937;BME280;71432;56.558;9.036;2023-07-20T03:43:17;100765.41;;;23.53;44.62
81937;BME280;71432;56.558;9.036;2023-07-20T03:45:42;100767.25;;;23.53;44.69
81937;BME280;71432;56.558;9.036;2023-07-20T03:48:08;100761.97;;;23.53;44.57
81937;BME280;71432;56.558;9.036;2023-07-20T03:50:33;100755.31;;;23.48;44.69
81937;BME280;71432;56.558;9.036;2023-07-20T03:52:58;100771.88;;;23.59;44.83
81937;BME280;71432;56.558;9.036;2023-07-20T03:55:24;100771.72;;;23.60;44.85
81937;BME280;71432;56.558;9.036;2023-07-20T03:57:49;100760.13;;;23.53;44.86
81937;BME280;71432;56.558;9.036;2023-07-20T04:00:16;100772.53;;;23.61;44.74
81937;BME280;71432;56.558;9.036;2023-07-20T04:02:41;100776.31;;;23.58;44.92
81937;BME280;71432;56.558;9.036;2023-07-20T04:05:07;100772.53;;;23.61;44.76
81937;BME280;71432;56.558;9.036;2023-07-20T04:07:32;100757.66;;;23.52;44.84
81937;BME280;71432;56.558;9.036;2023-07-20T04:09:57;100775.81;;;23.63;45.02
81937;BME280;71432;56.558;9.036;2023-07-20T04:12:23;100768.09;;;23.61;44.72
81937;BME280;71432;56.558;9.036;2023-07-20T04:14:48;100757.00;;;23.58;44.85
81937;BME280;71432;56.558;9.036;2023-07-20T04:17:13;100760.47;;;23.58;44.76
81937;BME280;71432;56.558;9.036;2023-07-20T04:19:39;100772.88;;;23.66;44.79
81937;BME280;71432;56.558;9.036;2023-07-20T04:22:04;100768.41;;;23.66;44.87
81937;BME280;71432;56.558;9.036;2023-07-20T04:24:29;100760.31;;;23.68;44.79
81937;BME280;71432;56.558;9.036;2023-07-20T04:26:55;100761.81;;;23.70;44.67
81937;BME280;71432;56.558;9.036;2023-07-20T04:29:20;100759.16;;;23.70;44.65
81937;BME280;71432;56.558;9.036;2023-07-20T04:31:45;100760.50;;;23.66;44.84
81937;BME280;71432;56.558;9.036;2023-07-20T04:34:11;100760.50;;;23.66;44.71
81937;BME280;71432;56.558;9.036;2023-07-20T04:36:36;100769.22;;;23.67;44.80
81937;BME280;71432;56.558;9.036;2023-07-20T04:39:01;100767.41;;;23.67;44.73
81937;BME280;71432;56.558;9.036;2023-07-20T04:41:27;100770.88;;;23.68;44.74
81937;BME280;71432;56.558;9.036;2023-07-20T04:43:52;100765.25;;;23.63;44.82
81937;BME280;71432;56.558;9.036;2023-07-20T04:46:17;100765.94;;;23.65;44.84
81937;BME280;71432;56.558;9.036;2023-07-20T04:48:43;100773.88;;;23.65;44.75
81937;BME280;71432;56.558;9.036;2023-07-20T04:51:09;100777.50;;;23.64;44.81
81937;BME280;71432;56.558;9.036;2023-07-20T04:53:35;100774.00;;;23.63;44.74
81937;BME280;71432;56.558;9.036;2023-07-20T04:56:00;100768.56;;;23.65;44.76
81937;BME280;71432;56.558;9.036;2023-07-20T04:58:26;100765.09;;;23.64;44.73
81937;BME280;71432;56.558;9.036;2023-07-20T05:00:52;100772.19;;;23.72;44.29
81937;BME280;71432;56.558;9.036;2023-07-20T05:03:18;100756.34;;;23.72;44.57
81937;BME280;71432;56.558;9.036;2023-07-20T05:05:43;100758.50;;;23.76;44.49
81937;BME280;71432;56.558;9.036;2023-07-20T05:08:08;100760.00;;;23.79;44.44
81937;BME280;71432;56.558;9.036;2023-07-20T05:10:34;100752.22;;;23.77;44.28
81937;BME280;71432;56.558;9.036;2023-07-20T05:12:59;100761.81;;;23.78;44.40
81937;BME280;71432;56.558;9.036;2023-07-20T05:15:25;100754.88;;;23.77;44.39
81937;BME280;71432;56.558;9.036;2023-07-20T05:17:50;100747.09;;;23.76;44.40
81937;BME280;71432;56.558;9.036;2023-07-20T05:20:16;100745.13;;;23.78;44.32
81937;BME280;71432;56.558;9.036;2023-07-20T05:22:42;100752.72;;;23.81;44.27
81937;BME280;71432;56.558;9.036;2023-07-20T05:25:08;100745.47;;;23.83;44.29
81937;BME280;71432;56.558;9.036;2023-07-20T05:27:36;100747.28;;;23.82;44.41
81937;BME280;71432;56.558;9.036;2023-07-20T05:30:02;100755.53;;;23.87;44.26
81937;BME280;71432;56.558;9.036;2023-07-20T05:32:28;100740.81;;;23.85;44.13
81937;BME280;71432;56.558;9.036;2023-07-20T05:34:53;100751.22;;;23.86;44.29
81937;BME280;71432;56.558;9.036;2023-07-20T05:37:19;100747.25;;;23.90;43.96
81937;BME280;71432;56.558;9.036;2023-07-20T05:39:44;100741.13;;;23.90;44.21
81937;BME280;71432;56.558;9.036;2023-07-20T05:42:10;100750.38;;;23.94;43.98
81937;BME280;71432;56.558;9.036;2023-07-20T05:44:35;100747.75;;;23.94;43.83
81937;BME280;71432;56.558;9.036;2023-07-20T05:47:01;100755.53;;;23.96;43.84
81937;BME280;71432;56.558;9.036;2023-07-20T05:49:27;100748.75;;;23.93;43.90
81937;BME280;71432;56.558;9.036;2023-07-20T05:51:54;100747.44;;;23.97;43.80
81937;BME280;71432;56.558;9.036;2023-07-20T05:54:20;100748.91;;;24.00;43.95
81937;BME280;71432;56.558;9.036;2023-07-20T05:56:45;100745.94;;;23.94;43.96
81937;BME280;71432;56.558;9.036;2023-07-20T05:59:11;100749.91;;;23.99;44.04
81937;BME280;71432;56.558;9.036;2023-07-20T06:01:36;100756.00;;;23.99;43.67
81937;BME280;71432;56.558;9.036;2023-07-20T06:04:02;100756.00;;;23.99;43.81
81937;BME280;71432;56.558;9.036;2023-07-20T06:06:28;100760.66;;;23.97;43.77
81937;BME280;71432;56.558;9.036;2023-07-20T06:08:54;100754.38;;;23.98;43.73
81937;BME280;71432;56.558;9.036;2023-07-20T06:11:20;100747.25;;;23.99;43.69
81937;BME280;71432;56.558;9.036;2023-07-20T06:13:45;100736.03;;;23.88;43.62
81937;BME280;71432;56.558;9.036;2023-07-20T06:16:11;100750.25;;;23.96;43.83
81937;BME280;71432;56.558;9.036;2023-07-20T06:18:36;100750.06;;;23.97;43.80
81937;BME280;71432;56.558;9.036;2023-07-20T06:21:02;100747.25;;;23.90;43.94
81937;BME280;71432;56.558;9.036;2023-07-20T06:23:27;100757.34;;;23.95;43.86
81937;BME280;71432;56.558;9.036;2023-07-20T06:25:53;100761.97;;;23.93;43.85
81937;BME280;71432;56.558;9.036;2023-07-20T06:28:18;100752.41;;;23.92;43.97
81937;BME280;71432;56.558;9.036;2023-07-20T06:30:43;100753.72;;;23.88;43.85
81937;BME280;71432;56.558;9.036;2023-07-20T06:33:09;100758.66;;;23.91;43.82
81937;BME280;71432;56.558;9.036;2023-07-20T06:35:34;100747.28;;;23.82;43.69
81937;BME280;71432;56.558;9.036;2023-07-20T06:38:01;100757.50;;;23.85;43.93
81937;BME280;71432;56.558;9.036;2023-07-20T06:40:26;100762.63;;;23.87;43.82
81937;BME280;71432;56.558;9.036;2023-07-20T06:42:52;100760.34;;;23.84;43.62
81937;BME280;71432;56.558;9.036;2023-07-20T06:45:17;100764.59;;;23.85;43.78
81937;BME280;71432;56.558;9.036;2023-07-20T06:47:43;100773.38;;;23.85;43.73
81937;BME280;71432;56.558;9.036;2023-07-20T06:50:09;100773.56;;;23.84;43.74
81937;BME280;71432;56.558;9.036;2023-07-20T06:52:35;100770.09;;;23.83;43.84
81937;BME280;71432;56.558;9.036;2023-07-20T06:55:00;100777.34;;;23.81;43.84
81937;BME280;71432;56.558;9.036;2023-07-20T06:57:26;100778.00;;;23.83;43.75
81937;BME280;71432;56.558;9.036;2023-07-20T06:59:51;100760.16;;;23.77;43.64
81937;BME280;71432;56.558;9.036;2023-07-20T07:02:17;100771.41;;;23.79;43.88
81937;BME280;71432;56.558;9.036;2023-07-20T07:04:42;100775.69;;;23.80;43.72
81937;BME280;71432;56.558;9.036;2023-07-20T07:07:08;100776.50;;;23.81;43.82
81937;BME280;71432;56.558;9.036;2023-07-20T07:09:34;100762.63;;;23.79;43.60
81937;BME280;71432;56.558;9.036;2023-07-20T07:11:59;100772.03;;;23.81;43.90
81937;BME280;71432;56.558;9.036;2023-07-20T07:14:25;100771.56;;;23.78;43.94
81937;BME280;71432;56.558;9.036;2023-07-20T07:16:50;100778.50;;;23.79;43.87
81937;BME280;71432;56.558;9.036;2023-07-20T07:19:15;100778.81;;;23.76;44.06
81937;BME280;71432;56.558;9.036;2023-07-20T07:21:41;100779.34;;;23.79;44.08
81937;BME280;71432;56.558;9.036;2023-07-20T07:24:06;100781.63;;;23.82;43.97
81937;BME280;71432;56.558;9.036;2023-07-20T07:26:33;100786.44;;;23.87;43.96
81937;BME280;71432;56.558;9.036;2023-07-20T07:28:58;100790.53;;;23.89;43.99
81937;BME280;71432;56.558;9.036;2023-07-20T07:31:28;100783.78;;;23.87;44.04
81937;BME280;71432;56.558;9.036;2023-07-20T07:33:54;100792.22;;;23.90;44.11
81937;BME280;71432;56.558;9.036;2023-07-20T07:36:19;100796.34;;;23.93;44.13
81937;BME280;71432;56.558;9.036;2023-07-20T07:38:44;100796.84;;;23.97;43.67
81937;BME280;71432;56.558;9.036;2023-07-20T07:41:10;100804.28;;;23.93;44.21
81937;BME280;71432;56.558;9.036;2023-07-20T07:43:35;100792.41;;;23.89;44.40
81937;BME280;71432;56.558;9.036;2023-07-20T07:46:01;100793.03;;;23.91;44.46
81937;BME280;71432;56.558;9.036;2023-07-20T07:48:27;100797.34;;;23.92;44.22
81937;BME280;71432;56.558;9.036;2023-07-20T07:50:53;100793.72;;;23.93;44.36
81937;BME280;71432;56.558;9.036;2023-07-20T07:53:19;100804.94;;;23.95;44.26
81937;BME280;71432;56.558;9.036;2023-07-20T07:55:47;100804.63;;;23.98;44.48
81937;BME280;71432;56.558;9.036;2023-07-20T07:58:12;100805.94;;;24.02;44.44
81937;BME280;71432;56.558;9.036;2023-07-20T08:00:38;100801.78;;;24.00;44.54
81937;BME280;71432;56.558;9.036;2023-07-20T08:03:06;100807.75;;;24.02;44.78
81937;BME280;71432;56.558;9.036;2023-07-20T08:05:31;100809.91;;;23.98;44.61
81937;BME280;71432;56.558;9.036;2023-07-20T08:07:56;100813.53;;;23.97;44.77
81937;BME280;71432;56.558;9.036;2023-07-20T08:10:22;100818.16;;;23.95;44.68
81937;BME280;71432;56.558;9.036;2023-07-20T08:12:47;100823.44;;;23.95;44.86
81937;BME280;71432;56.558;9.036;2023-07-20T08:15:13;100825.59;;;23.91;44.87
81937;BME280;71432;56.558;9.036;2023-07-20T08:17:40;100829.06;;;23.92;44.70
81937;BME280;71432;56.558;9.036;2023-07-20T08:20:06;100817.66;;;23.91;44.74
81937;BME280;71432;56.558;9.036;2023-07-20T08:22:31;100824.91;;;23.89;44.85
81937;BME280;71432;56.558;9.036;2023-07-20T08:24:57;100811.53;;;23.91;44.92
81937;BME280;71432;56.558;9.036;2023-07-20T08:27:22;100813.84;;;23.94;44.78
81937;BME280;71432;56.558;9.036;2023-07-20T08:29:47;100815.19;;;23.98;44.30
81937;BME280;71432;56.558;9.036;2023-07-20T08:32:13;100802.31;;;24.11;44.39
81937;BME280;71432;56.558;9.036;2023-07-20T08:34:39;100811.09;;;24.28;43.91
81937;BME280;71432;56.558;9.036;2023-07-20T08:37:05;100806.28;;;24.31;44.07
81937;BME280;71432;56.558;9.036;2023-07-20T08:39:30;100813.72;;;24.36;43.90
81937;BME280;71432;56.558;9.036;2023-07-20T08:41:57;100810.22;;;24.35;44.08
81937;BME280;71432;56.558;9.036;2023-07-20T08:44:25;100805.63;;;24.38;44.30
81937;BME280;71432;56.558;9.036;2023-07-20T08:46:51;100808.25;;;24.38;44.59
81937;BME280;71432;56.558;9.036;2023-07-20T08:49:17;100806.97;;;24.25;44.71
81937;BME280;71432;56.558;9.036;2023-07-20T08:51:43;100806.97;;;24.25;44.91
81937;BME280;71432;56.558;9.036;2023-07-20T08:54:11;100811.25;;;24.18;45.12
81937;BME280;71432;56.558;9.036;2023-07-20T08:56:38;100811.91;;;24.28;44.91
81937;BME280;71432;56.558;9.036;2023-07-20T08:59:06;100812.56;;;24.30;44.79
81937;BME280;71432;56.558;9.036;2023-07-20T09:01:34;100819.69;;;24.30;44.67
81937;BME280;71432;56.558;9.036;2023-07-20T09:04:01;100817.84;;;24.30;44.66
81937;BME280;71432;56.558;9.036;2023-07-20T09:06:26;100823.47;;;24.27;44.53
81937;BME280;71432;56.558;9.036;2023-07-20T09:08:52;100827.94;;;24.27;44.57
81937;BME280;71432;56.558;9.036;2023-07-20T09:11:17;100822.16;;;24.31;44.69
81937;BME280;71432;56.558;9.036;2023-07-20T09:13:43;100823.97;;;24.39;44.57
81937;BME280;71432;56.558;9.036;2023-07-20T09:16:08;100827.56;;;24.54;44.09
81937;BME280;71432;56.558;9.036;2023-07-20T09:18:34;100825.09;;;24.61;43.89
81937;BME280;71432;56.558;9.036;2023-07-20T09:21:05;100822.59;;;24.59;44.12
81937;BME280;71432;56.558;9.036;2023-07-20T09:25:57;100832.19;;;24.68;43.72
81937;BME280;71432;56.558;9.036;2023-07-20T09:28:23;100830.53;;;24.67;44.05
81937;BME280;71432;56.558;9.036;2023-07-20T09:30:48;100834.00;;;24.68;43.74
81937;BME280;71432;56.558;9.036;2023-07-20T09:33:22;100841.13;;;24.75;43.91
81937;BME280;71432;56.558;9.036;2023-07-20T09:35:48;100825.53;;;24.72;43.91
81937;BME280;71432;56.558;9.036;2023-07-20T09:38:14;100848.72;;;24.78;43.80
81937;BME280;71432;56.558;9.036;2023-07-20T09:40:40;100831.19;;;24.69;43.88
81937;BME280;71432;56.558;9.036;2023-07-20T09:43:09;100848.72;;;24.70;43.97
81937;BME280;71432;56.558;9.036;2023-07-20T09:45:39;100839.47;;;24.58;43.89
81937;BME280;71432;56.558;9.036;2023-07-20T09:48:06;100846.44;;;24.59;43.92
81937;BME280;71432;56.558;9.036;2023-07-20T09:50:42;100845.44;;;24.60;43.35
81937;BME280;71432;56.558;9.036;2023-07-20T09:53:11;100844.44;;;24.53;43.24
81937;BME280;71432;56.558;9.036;2023-07-20T09:55:39;100841.28;;;24.58;43.27
81937;BME280;71432;56.558;9.036;2023-07-20T09:58:06;100849.41;;;24.64;43.30
81937;BME280;71432;56.558;9.036;2023-07-20T10:00:32;100853.53;;;24.59;43.62
81937;BME280;71432;56.558;9.036;2023-07-20T10:03:01;100859.66;;;24.59;43.68
81937;BME280;71432;56.558;9.036;2023-07-20T10:05:32;100861.47;;;24.59;43.38
81937;BME280;71432;56.558;9.036;2023-07-20T10:07:59;100858.84;;;24.51;42.78
81937;BME280;71432;56.558;9.036;2023-07-20T10:10:27;100865.00;;;24.43;42.77
81937;BME280;71432;56.558;9.036;2023-07-20T10:12:52;100865.81;;;24.44;42.76
81937;BME280;71432;56.558;9.036;2023-07-20T10:15:24;100864.81;;;24.53;42.94
81937;BME280;71432;56.558;9.036;2023-07-20T10:18:03;100858.03;;;24.50;42.48
81937;BME280;71432;56.558;9.036;2023-07-20T10:20:30;100864.31;;;24.57;41.85
81937;BME280;71432;56.558;9.036;2023-07-20T10:22:57;100857.16;;;24.58;42.89
81937;BME280;71432;56.558;9.036;2023-07-20T10:25:23;100864.13;;;24.59;42.53
81937;BME280;71432;56.558;9.036;2023-07-20T10:27:49;100873.06;;;24.58;42.37
81937;BME280;71432;56.558;9.036;2023-07-20T10:30:15;100879.88;;;24.52;42.48
81937;BME280;71432;56.558;9.036;2023-07-20T10:32:42;100870.59;;;24.56;42.74
81937;BME280;71432;56.558;9.036;2023-07-20T10:35:15;100879.03;;;24.52;42.63
81937;BME280;71432;56.558;9.036;2023-07-20T10:37:51;100874.22;;;24.55;42.96
81937;BME280;71432;56.558;9.036;2023-07-20T10:43:19;100868.91;;;24.63;43.10
81937;BME280;71432;56.558;9.036;2023-07-20T10:45:52;100864.94;;;24.59;42.87
81937;BME280;71432;56.558;9.036;2023-07-20T10:48:18;100868.44;;;24.60;42.85
81937;BME280;71432;56.558;9.036;2023-07-20T10:50:45;100870.09;;;24.61;43.24
81937;BME280;71432;56.558;9.036;2023-07-20T10:55:36;100871.56;;;24.63;42.77
81937;BME280;71432;56.558;9.036;2023-07-20T10:58:13;100870.91;;;24.61;42.95
81937;BME280;71432;56.558;9.036;2023-07-20T11:01:00;100877.34;;;24.59;42.98
81937;BME280;71432;56.558;9.036;2023-07-20T11:03:30;100876.38;;;24.52;43.02
81937;BME280;71432;56.558;9.036;2023-07-20T11:05:57;100885.16;;;24.52;43.22
81937;BME280;71432;56.558;9.036;2023-07-20T11:08:39;100880.84;;;24.51;43.36
81937;BME280;71432;56.558;9.036;2023-07-20T11:11:31;100886.78;;;24.53;43.20
81937;BME280;71432;56.558;9.036;2023-07-20T11:13:58;100891.94;;;24.55;42.76
81937;BME280;71432;56.558;9.036;2023-07-20T11:16:34;100872.06;;;24.59;42.87
81937;BME280;71432;56.558;9.036;2023-07-20T11:19:00;100878.19;;;24.59;42.72
81937;BME280;71432;56.558;9.036;2023-07-20T11:21:26;100873.38;;;24.63;42.61
81937;BME280;71432;56.558;9.036;2023-07-20T11:23:52;100878.34;;;24.66;42.72
81937;BME280;71432;56.558;9.036;2023-07-20T11:26:18;100863.63;;;24.63;42.84
81937;BME280;71432;56.558;9.036;2023-07-20T11:28:48;100874.69;;;24.67;42.70
81937;BME280;71432;56.558;9.036;2023-07-20T11:31:14;100883.16;;;24.54;42.50
81937;BME280;71432;56.558;9.036;2023-07-20T11:33:41;100884.97;;;24.54;42.36
81937;BME280;71432;56.558;9.036;2023-07-20T11:36:08;100878.38;;;24.50;42.11
81937;BME280;71432;56.558;9.036;2023-07-20T11:38:33;100881.34;;;24.47;41.87
81937;BME280;71432;56.558;9.036;2023-07-20T11:40:59;100890.44;;;24.44;41.52
81937;BME280;71432;56.558;9.036;2023-07-20T11:43:24;100885.31;;;24.43;41.62
81937;BME280;71432;56.558;9.036;2023-07-20T11:45:51;100889.63;;;24.44;41.17
81937;BME280;71432;56.558;9.036;2023-07-20T11:48:16;100882.69;;;24.43;41.18
81937;BME280;71432;56.558;9.036;2023-07-20T11:50:42;100882.00;;;24.41;41.14
81937;BME280;71432;56.558;9.036;2023-07-20T11:53:08;100887.47;;;24.47;41.00
81937;BME280;71432;56.558;9.036;2023-07-20T11:55:34;100891.78;;;24.48;40.99
81937;BME280;71432;56.558;9.036;2023-07-20T12:00:28;100884.81;;;24.47;40.84
81937;BME280;71432;56.558;9.036;2023-07-20T12:02:53;100888.31;;;24.48;40.67
81937;BME280;71432;56.558;9.036;2023-07-20T12:05:19;100881.84;;;24.42;40.36
81937;BME280;71432;56.558;9.036;2023-07-20T12:07:44;100884.97;;;24.46;40.80
81937;BME280;71432;56.558;9.036;2023-07-20T12:10:11;100898.88;;;24.48;40.75
81937;BME280;71432;56.558;9.036;2023-07-20T12:12:38;100898.56;;;24.51;40.61
81937;BME280;71432;56.558;9.036;2023-07-20T12:15:24;100905.31;;;24.53;40.84
81937;BME280;71432;56.558;9.036;2023-07-20T12:17:56;100884.50;;;24.50;40.56
81937;BME280;71432;56.558;9.036;2023-07-20T12:20:35;100890.59;;;24.51;40.40
81937;BME280;71432;56.558;9.036;2023-07-20T12:23:02;100900.38;;;24.50;40.77
81937;BME280;71432;56.558;9.036;2023-07-20T12:25:36;100893.59;;;24.48;40.03
81937;BME280;71432;56.558;9.036;2023-07-20T12:28:05;100893.59;;;24.48;40.27
81937;BME280;71432;56.558;9.036;2023-07-20T12:30:30;100895.06;;;24.50;40.30
81937;BME280;71432;56.558;9.036;2023-07-20T12:32:56;100902.19;;;24.50;39.95
81937;BME280;71432;56.558;9.036;2023-07-20T12:35:21;100911.94;;;24.49;40.15
81937;BME280;71432;56.558;9.036;2023-07-20T12:37:46;100901.69;;;24.46;40.24
81937;BME280;71432;56.558;9.036;2023-07-20T12:40:14;100910.78;;;24.52;40.03
81937;BME280;71432;56.558;9.036;2023-07-20T12:42:39;100902.38;;;24.48;39.93
81937;BME280;71432;56.558;9.036;2023-07-20T12:45:05;100907.81;;;24.47;39.86
81937;BME280;71432;56.558;9.036;2023-07-20T12:47:31;100900.38;;;24.50;39.91
81937;BME280;71432;56.558;9.036;2023-07-20T12:49:56;100910.31;;;24.48;39.72
81937;BME280;71432;56.558;9.036;2023-07-20T12:52:21;100900.88;;;24.46;39.74
81937;BME280;71432;56.558;9.036;2023-07-20T12:54:47;100908.97;;;24.44;39.67
81937;BME280;71432;56.558;9.036;2023-07-20T12:57:12;100902.69;;;24.45;40.64
81937;BME280;71432;56.558;9.036;2023-07-20T12:59:37;100908.31;;;24.50;40.15
81937;BME280;71432;56.558;9.036;2023-07-20T13:02:03;100908.31;;;24.50;39.87
81937;BME280;71432;56.558;9.036;2023-07-20T13:04:29;100895.56;;;24.46;40.36
81937;BME280;71432;56.558;9.036;2023-07-20T13:06:54;100896.72;;;24.51;39.89